Flight Track Log - Related Links

Times and Time Zones

All times are in EDT time to prevent confusion due to time zone crossing. See the FDX1570 flight status page for this flight to view local times or setup timezone preferences in your user account.


Time Position Orientation Groundspeed Altitude Reporting Facility
EDT Latitude Longitude Course Direction KTS MPH feet Rate Location/Type
Fri 04:46:16 AM 35.0167 -89.9667 180° South 179 206 1,400  Level KMEM
Fri 04:46:44 AM 34.9833 -89.9667 180° South 161 185 3,600 3,191 Climbing KMEM
Fri 04:47:50 AM 34.9333 -89.9500 165° South 230 265 6,400 3,000 Climbing KMEM
Fri 04:49:44 AM 34.9581 -89.7819 80° East 273 314 12,600 2,724 Climbing Memphis Center
Fri 04:50:44 AM 35.0033 -89.6778 62° Northeast 316 364 14,300 2,150 Climbing Memphis Center
Fri 04:51:44 AM 35.0547 -89.5581 62° Northeast 357 411 16,900 2,650 Climbing Memphis Center
Fri 04:52:44 AM 35.1103 -89.4408 60° Northeast 382 440 19,600 2,350 Climbing Memphis Center
Fri 04:53:44 AM 35.1742 -89.3358 53° Northeast 413 475 21,600 2,150 Climbing Memphis Center
Fri 04:54:44 AM 35.2461 -89.2103 55° Northeast 432 497 23,900 2,150 Climbing Memphis Center
Fri 04:55:44 AM 35.3158 -89.0897 55° Northeast 438 504 25,900 1,780 Climbing Memphis Center
Fri 05:01:42 AM 35.7960 -88.2830 55° Northeast 477 549 36,300 1,719 Climbing FlightAware ADS-B
Fri 05:02:22 AM 35.8460 -88.1950 55° Northeast 473 544 37,300 1,350 Climbing FlightAware ADS-B
Fri 05:03:02 AM 35.8990 -88.1050 54° Northeast 474 545 38,100 1,129 Climbing FlightAware ADS-B
Fri 05:03:47 AM 35.9580 -88.0040 54° Northeast 473 544 38,900 635 Climbing FlightAware ADS-B
Fri 05:04:27 AM 36.0090 -87.9160 54° Northeast 478 550 39,000 71 Climbing FlightAware ADS-B
Fri 05:05:12 AM 36.0660 -87.8170 55° Northeast 486 559 39,000  Level FlightAware ADS-B
Fri 05:05:52 AM 36.1190 -87.7260 54° Northeast 490 564 39,000  Level FlightAware ADS-B
Fri 05:06:32 AM 36.1720 -87.6350 54° Northeast 492 566 39,000  Level FlightAware ADS-B
Fri 05:07:22 AM 36.2380 -87.5190 55° Northeast 494 568 39,000  Level FlightAware ADS-B
Fri 05:08:02 AM 36.2910 -87.4270 54° Northeast 498 573 39,000  Level FlightAware ADS-B
Fri 05:08:42 AM 36.3440 -87.3330 55° Northeast 498 573 39,000  Level FlightAware ADS-B
Fri 05:09:27 AM 36.4040 -87.2280 55° Northeast 498 573 39,000  Level FlightAware ADS-B
Fri 05:10:07 AM 36.4590 -87.1320 55° Northeast 498 573 39,000  Level FlightAware ADS-B
Fri 05:10:47 AM 36.5120 -87.0380 55° Northeast 498 573 39,000  Level FlightAware ADS-B
Fri 05:11:32 AM 36.5700 -86.9360 55° Northeast 497 572 39,000  Level FlightAware ADS-B
Fri 05:12:12 AM 36.6230 -86.8420 55° Northeast 497 572 39,000  Level FlightAware ADS-B
Fri 05:12:45 AM 36.6697 -86.7570 56° Northeast 498 573 39,000  Level FlightAware ADS-B
Fri 05:13:16 AM 36.7106 -86.6843 55° Northeast 498 573 39,000  Level FlightAware ADS-B
Fri 05:13:47 AM 36.7503 -86.6138 55° Northeast 497 572 39,000  Level FlightAware ADS-B
Fri 05:14:18 AM 36.7917 -86.5383 56° Northeast 497 572 39,000  Level FlightAware ADS-B
Fri 05:14:51 AM 36.8345 -86.4630 55° Northeast 496 571 39,000  Level FlightAware ADS-B
Fri 05:15:38 AM 36.8958 -86.3523 55° Northeast 496 571 39,000  Level FlightAware ADS-B
Fri 05:17:47 AM 37.0600 -86.0520 56° Northeast 497 572 39,000  Level FlightAware ADS-B
Fri 05:18:32 AM 37.1200 -85.9430 55° Northeast 497 572 39,000  Level FlightAware ADS-B
Fri 05:19:12 AM 37.1720 -85.8480 55° Northeast 497 572 39,000  Level FlightAware ADS-B
Fri 05:19:51 AM 37.2249 -85.7527 55° Northeast 497 572 39,000  Level FlightAware ADS-B
Fri 05:20:22 AM 37.2646 -85.6789 56° Northeast 498 573 39,000  Level FlightAware ADS-B
Fri 05:20:52 AM 37.3033 -85.6072 56° Northeast 498 573 39,000  Level FlightAware ADS-B
Fri 05:21:22 AM 37.3423 -85.5353 56° Northeast 499 574 39,000  Level FlightAware ADS-B
Fri 05:21:52 AM 37.3813 -85.4635 56° Northeast 500 575 39,000  Level FlightAware ADS-B
Fri 05:22:23 AM 37.4217 -85.3889 56° Northeast 500 575 39,000  Level FlightAware ADS-B
Fri 05:22:53 AM 37.4604 -85.3165 56° Northeast 500 575 39,000  Level FlightAware ADS-B
Fri 05:23:23 AM 37.4992 -85.2442 56° Northeast 500 575 39,000  Level FlightAware ADS-B
Fri 05:23:53 AM 37.5380 -85.1719 56° Northeast 500 575 39,000  Level FlightAware ADS-B
Fri 05:24:23 AM 37.5770 -85.0971 57° Northeast 500 575 39,000  Level FlightAware ADS-B
Fri 05:24:53 AM 37.6159 -85.0247 56° Northeast 499 574 39,000  Level FlightAware ADS-B
Fri 05:25:24 AM 37.6553 -84.9496 56° Northeast 499 574 39,000  Level FlightAware ADS-B
Fri 05:25:55 AM 37.6944 -84.8770 56° Northeast 499 574 39,000  Level FlightAware ADS-B
Fri 05:26:34 AM 37.7449 -84.7824 56° Northeast 501 577 39,000  Level FlightAware ADS-B
Fri 05:27:22 AM 37.8040 -84.6700 56° Northeast 502 578 39,000  Level FlightAware ADS-B
Fri 05:27:35 AM 37.8230 -84.6335 57° Northeast 501 577 39,000  Level FlightAware ADS-B
Fri 05:28:07 AM 37.8630 -84.5580 56° Northeast 502 578 39,000  Level FlightAware ADS-B
Fri 05:28:47 AM 37.9130 -84.4600 57° Northeast 500 575 39,000  Level FlightAware ADS-B
Fri 05:29:27 AM 37.9650 -84.3620 56° Northeast 500 575 39,000  Level FlightAware ADS-B
Fri 05:30:02 AM 38.0050 -84.2840 57° Northeast 497 572 39,000  Level FlightAware ADS-B
Fri 05:31:07 AM 38.0920 -84.1160 57° Northeast 496 571 39,000  Level FlightAware ADS-B
Fri 05:31:42 AM 38.1310 -84.0420 56° Northeast 496 571 39,000  Level FlightAware ADS-B
Fri 05:32:32 AM 38.1860 -83.9400 56° Northeast 496 571 39,000  Level FlightAware ADS-B
Fri 05:33:12 AM 38.2290 -83.8570 57° Northeast 496 571 39,000  Level FlightAware ADS-B
Fri 05:33:52 AM 38.2730 -83.7750 56° Northeast 496 571 39,000  Level FlightAware ADS-B
Fri 05:34:32 AM 38.3170 -83.6920 56° Northeast 496 571 39,000  Level FlightAware ADS-B
Fri 05:35:32 AM 38.4190 -83.4780 59° Northeast 497 572 39,000  Level FlightAware ADS-B
Fri 05:36:12 AM 38.4620 -83.3940 57° Northeast 497 572 39,000  Level FlightAware ADS-B
Fri 05:36:42 AM 38.4940 -83.3320 57° Northeast 497 572 39,000  Level FlightAware ADS-B
Fri 05:37:22 AM 38.5360 -83.2480 57° Northeast 497 572 39,000  Level FlightAware ADS-B
Fri 05:38:02 AM 38.5790 -83.1640 57° Northeast 497 572 39,000  Level FlightAware ADS-B
Fri 05:38:42 AM 38.6220 -83.0800 57° Northeast 497 572 39,000  Level FlightAware ADS-B
Fri 05:39:32 AM 38.7150 -82.8890 58° Northeast 486 559 39,000  Level FlightAware ADS-B
Fri 05:40:12 AM 38.7640 -82.7920 57° Northeast 485 558 39,000  Level FlightAware ADS-B
Fri 05:40:57 AM 38.8190 -82.6810 58° Northeast 482 555 39,000  Level FlightAware ADS-B
Fri 05:41:37 AM 38.8660 -82.5870 57° Northeast 481 554 39,000  Level FlightAware ADS-B
Fri 05:42:17 AM 38.9140 -82.4880 58° Northeast 480 552 39,000  Level FlightAware ADS-B
Fri 05:43:02 AM 38.9660 -82.3820 58° Northeast 479 551 39,000  Level FlightAware ADS-B
Fri 05:43:42 AM 39.0140 -82.2860 57° Northeast 478 550 39,000  Level FlightAware ADS-B
Fri 05:44:17 AM 39.0540 -82.2010 59° Northeast 478 550 39,000  Level FlightAware ADS-B
Fri 05:45:07 AM 39.1140 -82.0800 57° Northeast 479 551 39,000  Level FlightAware ADS-B
Fri 05:45:52 AM 39.1680 -81.9670 58° Northeast 477 549 39,000  Level FlightAware ADS-B
Fri 05:46:32 AM 39.2130 -81.8750 58° Northeast 476 548 39,000  Level FlightAware ADS-B
Fri 05:47:12 AM 39.2540 -81.7890 58° Northeast 476 548 39,000  Level FlightAware ADS-B
Fri 05:47:57 AM 39.3120 -81.6700 58° Northeast 476 548 39,000  Level FlightAware ADS-B
Fri 05:48:37 AM 39.3590 -81.5710 58° Northeast 476 548 39,000  Level FlightAware ADS-B
Fri 05:49:22 AM 39.4120 -81.4600 58° Northeast 476 548 39,000  Level FlightAware ADS-B
Fri 05:50:02 AM 39.4580 -81.3630 58° Northeast 477 549 39,000  Level FlightAware ADS-B
Fri 05:50:42 AM 39.5020 -81.2700 58° Northeast 477 549 39,000  Level FlightAware ADS-B
Fri 05:51:27 AM 39.5550 -81.1580 58° Northeast 478 550 39,000  Level FlightAware ADS-B
Fri 05:52:07 AM 39.6010 -81.0600 59° Northeast 478 550 39,000  Level FlightAware ADS-B
Fri 05:52:52 AM 39.6520 -80.9500 59° Northeast 478 550 39,000  Level FlightAware ADS-B
Fri 05:53:32 AM 39.7000 -80.8490 58° Northeast 477 549 39,000  Level FlightAware ADS-B
Fri 05:54:17 AM 39.7510 -80.7410 58° Northeast 477 549 39,000  Level FlightAware ADS-B
Fri 05:54:57 AM 39.7970 -80.6430 59° Northeast 478 550 39,000  Level FlightAware ADS-B
Fri 05:55:32 AM 39.8350 -80.5590 59° Northeast 478 550 39,000  Level FlightAware ADS-B
Fri 05:56:22 AM 39.8940 -80.4310 59° Northeast 477 549 39,000  Level FlightAware ADS-B
Fri 05:57:02 AM 39.9370 -80.3370 59° Northeast 477 549 39,000  Level FlightAware ADS-B
Fri 05:57:42 AM 39.9820 -80.2390 59° Northeast 477 549 39,000  Level FlightAware ADS-B
Fri 05:58:27 AM 40.0340 -80.1250 59° Northeast 475 547 39,000  Level FlightAware ADS-B
Fri 05:59:07 AM 40.0780 -80.0290 59° Northeast 474 545 39,000  Level FlightAware ADS-B
Fri 05:59:52 AM 40.1290 -79.9160 59° Northeast 473 544 39,000  Level FlightAware ADS-B
Fri 06:00:32 AM 40.1750 -79.8150 59° Northeast 472 543 39,000  Level FlightAware ADS-B
Fri 06:01:12 AM 40.2170 -79.7220 59° Northeast 471 542 39,000  Level FlightAware ADS-B
Fri 06:01:57 AM 40.2670 -79.6090 60° Northeast 470 541 39,000  Level FlightAware ADS-B
Fri 06:02:42 AM 40.3160 -79.5020 59° Northeast 467 537 39,000  Level FlightAware ADS-B
Fri 06:03:22 AM 40.3600 -79.4040 59° Northeast 466 536 39,000  Level FlightAware ADS-B
Fri 06:04:02 AM 40.4020 -79.3090 60° Northeast 466 536 39,000  Level FlightAware ADS-B
Fri 06:04:42 AM 40.4440 -79.2160 59° Northeast 466 536 39,000  Level FlightAware ADS-B
Fri 06:05:27 AM 40.4930 -79.1030 60° Northeast 465 535 39,000  Level FlightAware ADS-B
Fri 06:06:07 AM 40.5360 -79.0060 60° Northeast 466 536 39,000  Level FlightAware ADS-B
Fri 06:06:52 AM 40.5800 -78.9050 60° Northeast 466 536 39,000  Level FlightAware ADS-B
Fri 06:07:27 AM 40.6200 -78.8170 59° Northeast 468 539 39,000  Level FlightAware ADS-B
Fri 06:08:12 AM 40.6700 -78.7000 61° Northeast 465 535 39,000  Level FlightAware ADS-B
Fri 06:08:52 AM 40.7110 -78.6060 60° Northeast 464 534 39,000  Level FlightAware ADS-B
Fri 06:09:37 AM 40.7620 -78.4870 60° Northeast 464 534 39,000  Level FlightAware ADS-B
Fri 06:10:17 AM 40.8000 -78.4010 60° Northeast 468 539 39,000  Level FlightAware ADS-B
Fri 06:11:02 AM 40.8490 -78.2840 61° Northeast 467 537 39,000  Level FlightAware ADS-B
Fri 06:11:42 AM 40.8910 -78.1870 60° Northeast 466 536 39,000  Level FlightAware ADS-B
Fri 06:12:27 AM 40.9400 -78.0730 60° Northeast 465 535 39,000  Level FlightAware ADS-B
Fri 06:13:07 AM 40.9820 -77.9770 60° Northeast 465 535 39,000  Level FlightAware ADS-B
Fri 06:13:52 AM 41.0300 -77.8620 61° Northeast 466 536 39,000  Level FlightAware ADS-B
Fri 06:14:32 AM 41.0710 -77.7650 61° Northeast 466 536 39,000  Level FlightAware ADS-B
Fri 06:15:06 AM 41.1153 -77.6606 61° Northeast 466 536 39,000  Level FlightAware ADS-B
Fri 06:15:37 AM 41.1480 -77.5831 61° Northeast 466 536 39,000  Level FlightAware ADS-B
Fri 06:16:18 AM 41.1907 -77.4807 61° Northeast 466 536 39,000 -462 Level FlightAware ADS-B
Fri 06:17:08 AM 41.2435 -77.3531 61° Northeast 466 536 38,300 -878 Descending FlightAware ADS-B
Fri 06:17:40 AM 41.2760 -77.2755 61° Northeast 465 535 37,800 -871 Descending FlightAware ADS-B
Fri 06:18:10 AM 41.3076 -77.1982 61° Northeast 462 532 37,400 -871 Descending FlightAware ADS-B
Fri 06:18:42 AM 41.3408 -77.1187 61° Northeast 461 531 36,900 -952 Descending FlightAware ADS-B
Fri 06:19:13 AM 41.3721 -77.0442 61° Northeast 462 532 36,400 -938 Descending FlightAware ADS-B
Fri 06:19:46 AM 41.4061 -76.9596 62° Northeast 461 531 35,900 -896 Descending FlightAware ADS-B
Fri 06:20:20 AM 41.4404 -76.8771 61° Northeast 462 532 35,400 -923 Descending FlightAware ADS-B
Fri 06:20:51 AM 41.4724 -76.7999 61° Northeast 463 533 34,900 -984 Descending FlightAware ADS-B
Fri 06:21:21 AM 41.5036 -76.7220 62° Northeast 464 534 34,400 -1,125 Descending FlightAware ADS-B
Fri 06:21:55 AM 41.5382 -76.6363 62° Northeast 467 537 33,700 -1,273 Descending FlightAware ADS-B
Fri 06:22:27 AM 41.5714 -76.5571 61° Northeast 473 544 33,000 -1,292 Descending FlightAware ADS-B
Fri 06:23:00 AM 41.6063 -76.4691 62° Northeast 477 549 32,300 -938 Descending FlightAware ADS-B
Fri 06:23:31 AM 41.6389 -76.3882 62° Northeast 481 554 32,000 -590 Descending FlightAware ADS-B
Fri 06:24:01 AM 41.6704 -76.3102 62° Northeast 474 545 31,700 -984 Descending FlightAware ADS-B
Fri 06:24:32 AM 41.7016 -76.2332 61° Northeast 472 543 31,000 -1,645 Descending FlightAware ADS-B
Fri 06:25:03 AM 41.7343 -76.1505 62° Northeast 474 545 30,000 -1,636 Descending FlightAware ADS-B
Fri 06:25:38 AM 41.7697 -76.0627 62° Northeast 472 543 29,200 -1,569 Descending FlightAware ADS-B
Fri 06:26:08 AM 41.8012 -75.9825 62° Northeast 473 544 28,300 -1,823 Descending FlightAware ADS-B
Fri 06:26:57 AM 41.8480 -75.8660 62° Northeast 476 548 26,800 -1,211 Descending FlightAware ADS-B
Fri 06:28:02 AM 41.9090 -75.7120 62° Northeast 481 554 26,000 -1,255 Descending FlightAware ADS-B
Fri 06:28:47 AM 41.9610 -75.5780 62° Northeast 461 531 24,500 -1,412 Descending FlightAware ADS-B
Fri 06:29:27 AM 41.9980 -75.4830 62° Northeast 448 516 24,000 -375 Descending FlightAware ADS-B
Fri 06:30:07 AM 42.0390 -75.3800 62° Northeast 446 513 24,000  Level FlightAware ADS-B
Fri 06:30:52 AM 42.0860 -75.2690 60° Northeast 447 514 24,000 -212 Level FlightAware ADS-B
Fri 06:31:32 AM 42.1270 -75.1770 59° Northeast 438 504 23,700 -1,271 Descending FlightAware ADS-B
Fri 06:32:17 AM 42.1710 -75.0770 59° Northeast 432 497 22,200 -1,414 Descending FlightAware ADS-B
Fri 06:32:57 AM 42.2090 -74.9950 58° Northeast 21,400 -1,137 Descending FlightAware ADS-B
Fri 06:33:52 AM 42.2650 -74.8690 59° Northeast 422 486 20,400 -632 Descending FlightAware ADS-B
Fri 06:34:32 AM 42.2990 -74.7920 59° Northeast 422 486 20,400  Level FlightAware ADS-B
Fri 06:35:12 AM 42.3330 -74.7150 59° Northeast 422 486 20,400  Level FlightAware ADS-B
Fri 06:35:52 AM 42.3670 -74.6380 59° Northeast 422 486 20,400  Level FlightAware ADS-B
Fri 06:36:42 AM 42.4100 -74.5420 59° Northeast 422 486 20,400 -5,174 Level FlightAware ADS-B
Fri 06:37:41 AM 42.4644 -74.4244 59° Northeast 293 337 11,000 -5,250 Descending Boston Center
Fri 06:38:42 AM 42.4992 -74.3325 63° Northeast 259 298 9,900 -1,409 Descending Boston Center
Fri 06:39:36 AM 42.5111 -74.2428 80° East 253 291 8,300 -1,826 Descending Boston Center
Fri 06:40:37 AM 42.5250 -74.1472 79° East 263 303 6,400 -1,537 Descending Boston Center
Fri 06:41:37 AM 42.5453 -74.0436 75° East 268 308 5,200 -1,181 Descending Boston Center
Fri 06:42:44 AM 42.5633 -73.9453 76° East 249 287 3,900 -850 Descending Boston Center
Fri 06:43:44 AM 42.5892 -73.8783 62° Northeast 228 262 3,400 -750 Descending Boston Center
Fri 06:44:44 AM 42.6297 -73.8200 47° Northeast 208 239 2,400 -885 Descending Boston Center
Fri 06:45:46 AM 42.6797 -73.8042 13° North 171 197 1,600 -836 Descending Boston Center
Fri 06:46:46 AM 42.7236 -73.8081 356° North 147 169 700 -900 Descending Boston Center
Fri 06:51:00 AM 42.7333 -73.8000 North  Level FlightAware Approximate

Login

Don't have an account? Register now (free) for customized features, flight alerts, and more!